Time;durP1;ratioP1;P1;durP2;ratioP2;P2;SDS_P1;SDS_P2;PMS_P1;PMS_P2;Temp;Humidity;BMP_temperature;BMP_pressure;BME280_temperature;BME280_humidity;BME280_pressure;Samples;Min_cycle;Max_cycle;Signal;HPM_P1;HPM_P2
2021/05/26 00:02:25;;;;;;;11.35;5.47;;;22.10;99.90;;;;;;4936113;29;20054;-80
2021/05/26 00:04:51;;;;;;;8.82;4.95;;;22.10;99.90;;;;;;4935953;29;20109;-83
2021/05/26 00:07:17;;;;;;;10.13;5.50;;;22.00;99.90;;;;;;4952996;29;20031;-82
2021/05/26 00:09:43;;;;;;;11.00;6.20;;;22.10;99.90;;;;;;4953344;29;20030;-80
2021/05/26 00:12:10;;;;;;;11.07;5.43;;;22.10;99.90;;;;;;4953088;29;20123;-82
2021/05/26 00:14:36;;;;;;;13.05;5.80;;;22.10;99.90;;;;;;4953275;29;20024;-85
2021/05/26 00:17:04;;;;;;;11.63;4.80;;;22.00;99.90;;;;;;4953336;29;20024;-80
2021/05/26 00:19:29;;;;;;;9.80;4.97;;;21.70;99.90;;;;;;4952978;29;20391;-82
2021/05/26 00:21:55;;;;;;;10.48;5.22;;;21.70;99.90;;;;;;4952933;28;20503;-83
2021/05/26 00:24:21;;;;;;;9.90;5.10;;;21.80;99.90;;;;;;4953155;29;20488;-81
2021/05/26 00:26:47;;;;;;;9.02;5.78;;;21.40;99.90;;;;;;4952940;29;20050;-81
2021/05/26 00:29:13;;;;;;;9.25;4.45;;;21.30;99.90;;;;;;4953045;29;20023;-82
2021/05/26 00:31:39;;;;;;;11.63;5.22;;;21.30;99.90;;;;;;4953154;29;20038;-83
2021/05/26 00:34:04;;;;;;;10.65;5.68;;;21.50;99.90;;;;;;4952750;29;20019;-84
2021/05/26 00:36:31;;;;;;;7.82;4.72;;;21.30;99.90;;;;;;4953226;29;20050;-84
2021/05/26 00:38:57;;;;;;;13.15;5.00;;;21.10;99.90;;;;;;4953361;29;20054;-82
2021/05/26 00:41:30;;;;;;;5.60;4.03;;;21.10;99.90;;;;;;4935754;29;20411;-84
2021/05/26 00:43:56;;;;;;;13.10;5.50;;;20.70;99.90;;;;;;4956129;28;20482;-80
2021/05/26 00:46:22;;;;;;;20.77;7.68;;;21.00;99.90;;;;;;4956631;29;20039;-81
2021/05/26 00:48:48;;;;;;;18.58;6.88;;;20.80;99.90;;;;;;4956374;29;20030;-79
2021/05/26 00:51:14;;;;;;;16.55;7.57;;;20.90;99.90;;;;;;4957136;29;20031;-81
2021/05/26 00:53:40;;;;;;;18.90;9.90;;;21.10;99.90;;;;;;4955477;28;20382;-81
2021/05/26 00:56:07;;;;;;;14.50;9.50;;;21.00;99.90;;;;;;4956769;28;20058;-81
2021/05/26 00:58:33;;;;;;;19.95;9.88;;;21.00;99.90;;;;;;4956379;28;20055;-84
2021/05/26 01:00:59;;;;;;;17.90;8.65;;;21.00;99.90;;;;;;4956319;28;20081;-82
2021/05/26 01:03:25;;;;;;;18.42;8.93;;;21.20;99.90;;;;;;4955350;29;20071;-81
2021/05/26 01:05:51;;;;;;;13.95;8.82;;;21.00;99.90;;;;;;4956214;28;20042;-81
2021/05/26 01:08:17;;;;;;;17.40;8.75;;;21.20;99.90;;;;;;4955208;29;20027;-81
2021/05/26 01:10:43;;;;;;;17.70;9.02;;;21.10;99.90;;;;;;4956703;29;20063;-79
2021/05/26 01:13:10;;;;;;;19.42;8.30;;;21.10;99.90;;;;;;4956383;28;20034;-79
2021/05/26 01:15:36;;;;;;;16.45;8.00;;;21.20;99.90;;;;;;4956181;28;20034;-78
2021/05/26 01:18:22;;;;;;;17.77;8.13;;;21.00;99.90;;;;;;4956652;28;20411;-80
2021/05/26 01:20:48;;;;;;;14.20;7.78;;;20.90;99.90;;;;;;4955930;28;20098;-79
2021/05/26 01:23:17;;;;;;;11.90;6.57;;;20.90;99.90;;;;;;4956417;28;20035;-82
2021/05/26 01:25:54;;;;;;;14.88;6.80;;;20.60;99.90;;;;;;4956184;28;20031;-82
2021/05/26 01:28:21;;;;;;;14.93;5.88;;;20.50;99.90;;;;;;4955863;28;20102;-80
2021/05/26 01:30:48;;;;;;;9.80;4.68;;;20.20;99.90;;;;;;4955898;28;20062;-83
2021/05/26 01:33:14;;;;;;;12.52;5.15;;;19.60;99.90;;;;;;4955792;28;20035;-82
2021/05/26 01:35:41;;;;;;;19.02;5.53;;;19.80;99.90;;;;;;4955954;28;20106;-83
2021/05/26 01:38:11;;;;;;;8.70;4.63;;;20.00;99.90;;;;;;4956333;28;20042;-82
2021/05/26 01:40:37;;;;;;;9.18;4.60;;;20.30;99.90;;;;;;4954202;29;20023;-82
2021/05/26 01:43:03;;;;;;;9.05;4.28;;;20.50;99.90;;;;;;4955800;29;20030;-79
2021/05/26 01:45:29;;;;;;;9.52;4.57;;;20.50;99.90;;;;;;4955719;28;20039;-79
2021/05/26 01:47:55;;;;;;;8.70;4.90;;;20.60;99.90;;;;;;4955740;29;20030;-81
2021/05/26 01:50:21;;;;;;;13.27;4.82;;;20.60;99.90;;;;;;4955863;29;20098;-81
2021/05/26 01:53:08;;;;;;;9.20;5.47;;;20.60;99.90;;;;;;4954289;29;20031;-78
2021/05/26 01:55:36;;;;;;;10.05;5.15;;;20.60;99.90;;;;;;4934098;29;20071;-82
2021/05/26 01:58:03;;;;;;;12.30;5.03;;;20.60;99.90;;;;;;4936155;29;20083;-81
2021/05/26 02:00:29;;;;;;;9.32;4.85;;;20.50;99.90;;;;;;4936223;29;20034;-81
2021/05/26 02:02:55;;;;;;;8.98;4.63;;;20.60;99.90;;;;;;4936494;29;20023;-81
2021/05/26 02:05:22;;;;;;;8.55;4.80;;;20.70;99.90;;;;;;4936044;29;20134;-82
2021/05/26 02:07:47;;;;;;;10.65;4.60;;;20.70;99.90;;;;;;4935859;29;20118;-82
2021/05/26 02:10:16;;;;;;;8.77;4.78;;;20.60;99.90;;;;;;4934958;29;20400;-82
2021/05/26 02:12:44;;;;;;;12.30;5.13;;;20.50;99.90;;;;;;4936038;29;20058;-80
2021/05/26 02:15:13;;;;;;;16.23;4.32;;;20.30;99.90;;;;;;4934594;29;20433;-80
2021/05/26 02:17:39;;;;;;;10.38;4.40;;;20.30;99.90;;;;;;4950597;29;20031;-80
2021/05/26 02:20:07;;;;;;;9.73;4.80;;;20.30;99.90;;;;;;4936120;29;20043;-81
2021/05/26 02:22:34;;;;;;;9.75;4.97;;;20.20;99.90;;;;;;4935614;29;20119;-80
2021/05/26 02:25:00;;;;;;;8.65;4.70;;;20.20;99.90;;;;;;4936178;29;20074;-81
2021/05/26 02:27:26;;;;;;;11.68;5.60;;;20.10;99.90;;;;;;4935518;29;20094;-80
2021/05/26 02:29:52;;;;;;;10.90;5.40;;;20.00;99.90;;;;;;4935852;29;20064;-82
2021/05/26 02:32:18;;;;;;;10.88;5.07;;;20.00;99.90;;;;;;4935784;29;20032;-79
2021/05/26 02:34:44;;;;;;;12.57;4.95;;;20.00;99.90;;;;;;4935970;29;20083;-79
2021/05/26 02:37:09;;;;;;;12.23;5.15;;;20.00;99.90;;;;;;4935551;29;20059;-81
2021/05/26 02:39:35;;;;;;;13.20;5.15;;;20.00;99.90;;;;;;4935732;29;20103;-79
2021/05/26 02:42:01;;;;;;;11.70;5.07;;;20.10;99.90;;;;;;4935743;29;20431;-76
2021/05/26 02:44:27;;;;;;;12.68;4.97;;;20.10;99.90;;;;;;4935835;29;20059;-77
2021/05/26 02:46:52;;;;;;;11.57;5.43;;;20.00;99.90;;;;;;4935387;29;20031;-79
2021/05/26 02:49:18;;;;;;;9.07;4.28;;;19.90;99.90;;;;;;4935498;29;20369;-77
2021/05/26 02:51:44;;;;;;;13.75;4.40;;;19.80;99.90;;;;;;4935499;29;20051;-80
2021/05/26 02:54:10;;;;;;;15.00;4.70;;;19.80;99.90;;;;;;4942786;29;20411;-79
2021/05/26 02:56:36;;;;;;;18.67;5.05;;;19.30;99.90;;;;;;4953989;29;20103;-79
2021/05/26 02:59:04;;;;;;;11.43;5.00;;;18.80;99.90;;;;;;4954493;28;20027;-78
2021/05/26 03:01:30;;;;;;;10.98;5.15;;;18.80;99.90;;;;;;4954283;29;20027;-77
2021/05/26 03:03:56;;;;;;;12.65;5.07;;;18.70;99.90;;;;;;4954421;29;20053;-79
2021/05/26 03:06:24;;;;;;;8.60;4.60;;;19.10;99.90;;;;;;4954218;28;20109;-80
2021/05/26 03:08:50;;;;;;;12.80;5.90;;;19.30;99.90;;;;;;4954117;29;20043;-79
2021/05/26 03:11:16;;;;;;;9.95;5.38;;;19.00;99.90;;;;;;4954115;29;20034;-79
2021/05/26 03:13:42;;;;;;;15.35;5.55;;;18.70;99.90;;;;;;4954281;29;20078;-80
2021/05/26 03:16:08;;;;;;;13.43;5.80;;;18.90;99.90;;;;;;4953899;29;20039;-78
2021/05/26 03:18:34;;;;;;;12.95;5.78;;;18.80;99.90;;;;;;4954218;29;20038;-79
2021/05/26 03:21:00;;;;;;;11.30;5.40;;;19.10;99.90;;;;;;4954147;29;20053;-77
2021/05/26 03:23:26;;;;;;;14.77;6.10;;;19.30;99.90;;;;;;4952993;29;20055;-78
2021/05/26 03:25:52;;;;;;;9.90;4.68;;;19.20;99.90;;;;;;4953785;29;20110;-78
2021/05/26 03:28:18;;;;;;;9.73;4.60;;;19.40;99.90;;;;;;4953760;29;20019;-79
2021/05/26 03:30:46;;;;;;;9.65;5.07;;;19.00;99.90;;;;;;4954241;29;20028;-79
2021/05/26 03:33:14;;;;;;;11.27;5.38;;;18.80;99.90;;;;;;4953952;29;20020;-82
2021/05/26 03:35:42;;;;;;;10.98;5.18;;;18.90;99.90;;;;;;4953897;29;20387;-79
2021/05/26 03:38:08;;;;;;;15.18;5.47;;;18.90;99.90;;;;;;4953934;29;20082;-79
2021/05/26 03:40:36;;;;;;;11.80;5.15;;;19.00;99.90;;;;;;4953722;29;20047;-79
2021/05/26 03:43:02;;;;;;;12.40;5.97;;;19.10;99.90;;;;;;4953784;29;20394;-80
2021/05/26 03:45:29;;;;;;;13.05;5.18;;;19.10;99.90;;;;;;4953831;29;20058;-81
2021/05/26 03:47:57;;;;;;;10.70;5.40;;;19.20;99.90;;;;;;4953356;29;20019;-80
2021/05/26 03:50:23;;;;;;;19.98;5.68;;;19.20;99.90;;;;;;4952449;29;20042;-79
2021/05/26 03:52:51;;;;;;;15.80;6.60;;;19.60;99.90;;;;;;4953354;29;20031;-81
2021/05/26 03:55:19;;;;;;;8.68;6.22;;;19.30;99.90;;;;;;4953067;29;20073;-80
2021/05/26 03:57:46;;;;;;;10.15;6.20;;;19.20;99.90;;;;;;4953458;29;20170;-83
2021/05/26 04:00:17;;;;;;;9.48;5.93;;;19.00;99.90;;;;;;4953993;29;20024;-80
2021/05/26 04:02:43;;;;;;;12.50;5.47;;;18.90;99.90;;;;;;4953262;29;20094;-82
2021/05/26 04:05:10;;;;;;;12.60;6.40;;;19.10;99.90;;;;;;4953572;29;20062;-79
2021/05/26 04:07:36;;;;;;;13.50;5.80;;;18.80;99.90;;;;;;4953304;29;20665;-81
2021/05/26 04:10:03;;;;;;;16.90;6.75;;;18.90;99.90;;;;;;4953106;29;20463;-81
2021/05/26 04:12:29;;;;;;;11.93;6.13;;;19.00;99.90;;;;;;4947330;29;20516;-81
2021/05/26 04:14:55;;;;;;;12.50;6.28;;;18.60;99.90;;;;;;4944968;29;20031;-81
2021/05/26 04:17:22;;;;;;;9.73;6.18;;;18.70;99.90;;;;;;4934622;29;20020;-80
2021/05/26 04:19:48;;;;;;;15.73;6.57;;;18.60;99.90;;;;;;4938244;29;20480;-82
2021/05/26 04:22:14;;;;;;;11.05;6.22;;;18.60;99.90;;;;;;4937863;29;20048;-81
2021/05/26 04:24:39;;;;;;;14.80;6.28;;;18.70;99.90;;;;;;4937903;29;20039;-79
2021/05/26 04:27:05;;;;;;;14.23;6.68;;;18.80;99.90;;;;;;4938020;29;20039;-84
2021/05/26 04:29:33;;;;;;;11.52;6.38;;;18.70;99.90;;;;;;4938258;29;20024;-83
2021/05/26 04:31:59;;;;;;;15.15;6.63;;;18.70;99.90;;;;;;4936926;29;20075;-80
2021/05/26 04:34:28;;;;;;;11.18;6.70;;;18.60;99.90;;;;;;4938124;29;20380;-84
2021/05/26 04:36:54;;;;;;;12.90;6.20;;;18.70;99.90;;;;;;4937908;29;20026;-82
2021/05/26 04:39:19;;;;;;;8.98;6.28;;;18.60;99.90;;;;;;4937638;29;20032;-80
2021/05/26 04:41:45;;;;;;;17.23;6.43;;;18.50;99.90;;;;;;4937905;29;20063;-80
2021/05/26 04:44:11;;;;;;;10.57;6.30;;;18.80;99.90;;;;;;4937589;29;20028;-80
2021/05/26 04:46:37;;;;;;;10.80;6.18;;;18.70;99.90;;;;;;4937604;29;20657;-78
2021/05/26 04:49:03;;;;;;;8.57;5.72;;;18.60;99.90;;;;;;4936974;29;20391;-79
2021/05/26 04:51:29;;;;;;;9.88;6.30;;;18.80;99.90;;;;;;4937698;29;20023;-78
2021/05/26 04:53:55;;;;;;;13.82;6.28;;;18.70;99.90;;;;;;4939918;29;20098;-79
2021/05/26 04:56:21;;;;;;;11.55;6.50;;;18.80;99.90;;;;;;4956478;29;20027;-80
2021/05/26 04:58:46;;;;;;;15.65;7.22;;;18.50;99.90;;;;;;4955219;29;20122;-79
2021/05/26 05:01:12;;;;;;;10.75;6.97;;;18.50;99.90;;;;;;4956545;29;20023;-81
2021/05/26 05:03:38;;;;;;;13.48;5.82;;;18.70;99.90;;;;;;4956067;29;20030;-82
2021/05/26 05:06:05;;;;;;;9.27;5.45;;;18.40;99.90;;;;;;4956174;29;20460;-82
2021/05/26 05:08:31;;;;;;;9.85;4.88;;;18.20;99.90;;;;;;4956436;29;20034;-81
2021/05/26 05:10:56;;;;;;;9.52;5.28;;;18.30;99.90;;;;;;4954936;29;20118;-80
2021/05/26 05:13:23;;;;;;;8.20;5.15;;;18.40;99.90;;;;;;4956154;29;20027;-81
2021/05/26 05:15:48;;;;;;;12.48;7.20;;;18.30;99.90;;;;;;4955097;29;20491;-80
2021/05/26 05:18:14;;;;;;;10.48;5.60;;;18.60;99.90;;;;;;4955803;29;20027;-82
2021/05/26 05:20:40;;;;;;;8.60;5.18;;;18.90;99.90;;;;;;4954911;28;20035;-82
2021/05/26 05:23:06;;;;;;;11.63;5.13;;;18.60;99.90;;;;;;4956156;29;20035;-80
2021/05/26 05:25:32;;;;;;;7.90;5.13;;;18.50;99.90;;;;;;4955955;29;20019;-80
2021/05/26 05:27:58;;;;;;;11.50;5.43;;;18.80;99.90;;;;;;4955521;28;20035;-79
2021/05/26 05:30:24;;;;;;;11.00;4.82;;;18.80;99.90;;;;;;4955002;29;20046;-80
2021/05/26 05:32:50;;;;;;;16.40;5.75;;;19.00;99.90;;;;;;4955688;29;20106;-77
2021/05/26 05:35:15;;;;;;;11.48;5.03;;;19.10;99.90;;;;;;4954422;29;20110;-80
2021/05/26 05:37:41;;;;;;;13.38;5.28;;;19.20;99.90;;;;;;4955548;29;20036;-80
2021/05/26 05:40:08;;;;;;;10.45;5.25;;;19.00;99.90;;;;;;4955790;29;20019;-83
2021/05/26 05:42:34;;;;;;;16.05;5.18;;;19.00;99.90;;;;;;4955549;29;20474;-83
2021/05/26 05:45:00;;;;;;;11.90;4.80;;;19.40;99.90;;;;;;4955436;29;20563;-81
2021/05/26 05:47:25;;;;;;;13.32;4.90;;;19.10;99.90;;;;;;4955307;29;20031;-78
2021/05/26 05:49:51;;;;;;;10.63;4.07;;;19.60;99.90;;;;;;4955096;29;20027;-77
2021/05/26 05:52:17;;;;;;;10.90;5.65;;;19.60;99.90;;;;;;4955530;29;20058;-78
2021/05/26 05:54:44;;;;;;;13.90;7.03;;;19.20;99.90;;;;;;4947745;29;20080;-79
2021/05/26 05:57:09;;;;;;;32.35;17.85;;;19.10;99.90;;;;;;4936371;29;20035;-78
2021/05/26 05:59:35;;;;;;;18.77;10.63;;;19.60;99.90;;;;;;4929677;29;20032;-78
2021/05/26 06:02:01;;;;;;;12.02;6.72;;;19.60;99.90;;;;;;4935539;29;20028;-81
2021/05/26 06:04:27;;;;;;;12.52;5.53;;;19.40;99.90;;;;;;4935459;29;20059;-79
2021/05/26 06:06:53;;;;;;;13.73;5.47;;;19.80;99.90;;;;;;4935422;29;20432;-79
2021/05/26 06:09:20;;;;;;;11.07;5.68;;;19.80;99.90;;;;;;4918711;29;20032;-81
2021/05/26 06:11:47;;;;;;;10.30;6.03;;;19.90;99.90;;;;;;4936107;29;20027;-80
2021/05/26 06:14:13;;;;;;;11.48;4.70;;;19.40;99.90;;;;;;4935187;29;20055;-75
2021/05/26 06:16:39;;;;;;;8.68;3.78;;;19.60;99.90;;;;;;4935806;29;20048;-75
2021/05/26 06:19:06;;;;;;;14.93;8.50;;;19.60;99.90;;;;;;4935622;29;20090;-78
2021/05/26 06:21:33;;;;;;;32.20;18.60;;;19.80;99.90;;;;;;4935614;29;20095;-77
2021/05/26 06:23:59;;;;;;;11.05;5.40;;;20.20;99.90;;;;;;4935324;29;20363;-80
2021/05/26 06:26:25;;;;;;;13.77;6.47;;;19.60;99.90;;;;;;4935482;29;20544;-76
2021/05/26 06:28:52;;;;;;;13.10;5.35;;;20.00;99.90;;;;;;4933679;29;20110;-79
2021/05/26 06:31:20;;;;;;;11.50;6.38;;;20.00;99.90;;;;;;4935788;29;20086;-79
2021/05/26 06:33:46;;;;;;;7.85;5.53;;;20.30;99.90;;;;;;4935353;29;20032;-82
2021/05/26 06:36:12;;;;;;;10.02;5.30;;;20.30;99.90;;;;;;4935553;29;20039;-83
2021/05/26 06:38:39;;;;;;;13.95;5.10;;;19.90;99.90;;;;;;4930111;29;20039;-77
2021/05/26 06:41:04;;;;;;;7.57;4.90;;;20.10;99.90;;;;;;4926563;29;20444;-77
2021/05/26 06:43:31;;;;;;;11.10;4.65;;;20.40;99.70;;;;;;4934280;29;20527;-75
2021/05/26 06:45:57;;;;;;;9.93;4.80;;;20.10;99.90;;;;;;4934745;29;20035;-75
2021/05/26 06:48:24;;;;;;;12.10;5.35;;;20.20;99.90;;;;;;4917189;29;20070;-80
2021/05/26 06:50:51;;;;;;;10.77;4.10;;;20.40;99.70;;;;;;4934926;29;20038;-79
2021/05/26 06:53:17;;;;;;;11.35;4.68;;;20.00;99.80;;;;;;4937290;29;20067;-76
2021/05/26 06:55:43;;;;;;;10.68;4.47;;;20.10;99.90;;;;;;4954014;29;20066;-80
2021/05/26 06:58:09;;;;;;;6.85;4.43;;;20.30;99.90;;;;;;4953816;29;20083;-77
2021/05/26 07:00:35;;;;;;;11.18;4.95;;;20.40;99.50;;;;;;4953813;29;20023;-78
2021/05/26 07:03:02;;;;;;;8.43;5.03;;;20.40;99.60;;;;;;4953755;29;20032;-82
2021/05/26 07:05:27;;;;;;;11.73;5.15;;;20.60;99.60;;;;;;4953844;29;20639;-79
2021/05/26 07:07:54;;;;;;;8.18;4.75;;;20.80;99.00;;;;;;4953275;29;20040;-77
2021/05/26 07:10:20;;;;;;;8.85;4.38;;;20.30;98.80;;;;;;4952382;29;20565;-77
2021/05/26 07:12:47;;;;;;;10.73;4.97;;;20.20;99.90;;;;;;4953661;29;20027;-76
2021/05/26 07:15:14;;;;;;;8.68;4.43;;;20.30;99.90;;;;;;4953456;29;20031;-77
2021/05/26 07:17:40;;;;;;;10.32;4.88;;;20.20;99.90;;;;;;4953369;29;20122;-76
2021/05/26 07:20:06;;;;;;;7.93;4.70;;;20.50;99.90;;;;;;4953188;28;20027;-77
2021/05/26 07:22:32;;;;;;;10.80;5.65;;;20.80;99.40;;;;;;4952004;29;20039;-77
2021/05/26 07:24:59;;;;;;;10.75;6.15;;;20.90;99.90;;;;;;4953397;28;20023;-77
2021/05/26 07:27:25;;;;;;;14.25;7.95;;;21.10;99.60;;;;;;4953193;28;20058;-77
2021/05/26 07:29:51;;;;;;;16.65;11.15;;;21.20;99.10;;;;;;4952755;29;20075;-76
2021/05/26 07:32:17;;;;;;;16.02;6.75;;;21.00;99.30;;;;;;4953421;28;20047;-74
2021/05/26 07:34:42;;;;;;;22.83;11.07;;;21.00;99.30;;;;;;4953068;28;20031;-78
2021/05/26 07:37:08;;;;;;;9.75;4.72;;;21.40;99.90;;;;;;4953435;29;20070;-76
2021/05/26 07:39:35;;;;;;;9.80;5.32;;;21.20;98.70;;;;;;4953196;29;20023;-74
2021/05/26 07:42:06;;;;;;;11.95;6.20;;;21.30;99.90;;;;;;4952777;28;20054;-74
2021/05/26 07:44:32;;;;;;;12.30;5.15;;;21.50;98.90;;;;;;4948939;28;20132;-75
2021/05/26 07:46:58;;;;;;;9.02;4.50;;;21.20;98.40;;;;;;4951902;28;20065;-76
2021/05/26 07:49:24;;;;;;;8.38;4.40;;;21.30;99.90;;;;;;4951562;29;20439;-73
2021/05/26 07:51:52;;;;;;;11.93;5.28;;;21.60;99.40;;;;;;4951574;28;20039;-77
2021/05/26 07:54:18;;;;;;;10.63;4.50;;;21.80;99.70;;;;;;4957334;28;20030;-79
2021/05/26 07:56:45;;;;;;;8.70;4.20;;;21.90;99.80;;;;;;4961208;28;20062;-74
2021/05/26 07:59:11;;;;;;;7.28;4.55;;;21.80;98.30;;;;;;4961490;28;20356;-75
2021/05/26 08:01:37;;;;;;;13.00;5.15;;;21.90;98.00;;;;;;4965690;28;20031;-75
2021/05/26 08:04:03;;;;;;;8.32;4.40;;;22.20;98.30;;;;;;4959459;28;20034;-75
2021/05/26 08:06:29;;;;;;;10.93;5.40;;;22.30;98.80;;;;;;4961175;28;20050;-76
2021/05/26 08:08:55;;;;;;;9.02;4.75;;;22.40;97.60;;;;;;4971322;28;20495;-77
2021/05/26 08:11:20;;;;;;;8.95;4.78;;;22.40;97.00;;;;;;4965922;28;20038;-76
2021/05/26 08:13:46;;;;;;;9.13;4.78;;;22.30;97.40;;;;;;4961085;28;20030;-76
2021/05/26 08:16:12;;;;;;;19.02;11.55;;;22.20;96.90;;;;;;4956574;28;20031;-77
2021/05/26 08:18:39;;;;;;;15.43;9.57;;;21.60;97.50;;;;;;4957653;28;20474;-77
2021/05/26 08:21:05;;;;;;;20.15;12.63;;;21.80;97.40;;;;;;4970090;28;20030;-77
2021/05/26 08:23:30;;;;;;;15.90;10.02;;;22.30;97.90;;;;;;4951069;28;20027;-78
2021/05/26 08:25:57;;;;;;;11.55;6.32;;;22.60;98.60;;;;;;4959107;28;20377;-77
2021/05/26 08:28:23;;;;;;;9.05;5.80;;;22.80;97.40;;;;;;4934881;29;20046;-78
2021/05/26 08:30:48;;;;;;;11.70;4.80;;;22.90;98.40;;;;;;4929351;29;20599;-77
2021/05/26 08:33:14;;;;;;;9.63;5.13;;;22.80;95.70;;;;;;4949575;29;20099;-79
2021/05/26 08:35:40;;;;;;;8.20;4.38;;;22.80;96.70;;;;;;4942224;28;20170;-76
2021/05/26 08:38:06;;;;;;;9.38;4.45;;;22.30;95.50;;;;;;4955147;28;20452;-79
2021/05/26 08:40:32;;;;;;;8.55;4.68;;;22.00;96.90;;;;;;4961905;28;20030;-77
2021/05/26 08:42:59;;;;;;;15.98;6.55;;;22.10;97.00;;;;;;4944194;28;20030;-75
2021/05/26 08:45:26;;;;;;;28.38;19.55;;;22.40;96.50;;;;;;4961245;28;20115;-75
2021/05/26 08:47:54;;;;;;;32.80;20.23;;;22.50;96.30;;;;;;4965362;28;20106;-77
2021/05/26 08:50:20;;;;;;;14.02;9.23;;;22.50;96.30;;;;;;4971912;28;20113;-78
2021/05/26 08:52:46;;;;;;;12.25;6.70;;;22.70;97.60;;;;;;4966485;28;20067;-77
2021/05/26 08:55:16;;;;;;;13.10;5.03;;;23.00;97.20;;;;;;4949953;29;20043;-78
2021/05/26 08:57:43;;;;;;;8.95;5.32;;;23.30;95.30;;;;;;4952163;29;20027;-78
2021/05/26 09:00:11;;;;;;;9.10;4.55;;;23.00;95.10;;;;;;4952646;28;20134;-78
2021/05/26 09:02:38;;;;;;;7.00;4.65;;;23.00;95.10;;;;;;4952701;28;20610;-82
2021/05/26 09:05:05;;;;;;;10.13;5.95;;;23.20;96.60;;;;;;4954699;28;20031;-75
2021/05/26 09:07:33;;;;;;;7.32;4.57;;;23.60;94.80;;;;;;4954615;28;20431;-77
2021/05/26 09:10:06;;;;;;;8.38;4.47;;;23.90;96.10;;;;;;4951433;29;20518;-79
2021/05/26 09:12:43;;;;;;;23.67;5.28;;;23.90;94.50;;;;;;4955193;28;20420;-77
2021/05/26 09:15:20;;;;;;;11.57;5.15;;;24.30;94.20;;;;;;4954088;29;20023;-77
2021/05/26 09:17:48;;;;;;;12.85;5.10;;;24.30;92.90;;;;;;4953249;29;20038;-77
2021/05/26 09:20:28;;;;;;;9.43;4.90;;;24.10;93.40;;;;;;4955297;28;20027;-77
2021/05/26 09:23:04;;;;;;;9.60;4.85;;;24.40;92.70;;;;;;4954922;28;20030;-78
2021/05/26 09:25:32;;;;;;;11.50;4.78;;;24.00;92.70;;;;;;4955179;28;20345;-77
2021/05/26 09:28:20;;;;;;;8.35;4.93;;;23.90;93.00;;;;;;4955060;28;20027;-76
2021/05/26 09:30:56;;;;;;;9.40;4.93;;;24.20;92.50;;;;;;4953073;29;20365;-75
2021/05/26 09:33:38;;;;;;;9.07;5.05;;;24.60;92.90;;;;;;4955425;28;20412;-75
2021/05/26 09:36:20;;;;;;;12.20;6.10;;;24.40;91.30;;;;;;4953518;29;20027;-76
2021/05/26 09:38:50;;;;;;;11.18;6.65;;;24.40;91.30;;;;;;4954353;29;20122;-75
2021/05/26 09:41:36;;;;;;;17.58;7.25;;;24.90;91.80;;;;;;4954715;28;20035;-77
2021/05/26 09:44:10;;;;;;;11.95;6.28;;;24.90;90.50;;;;;;4954438;28;20426;-77
2021/05/26 09:46:38;;;;;;;25.67;18.65;;;24.70;90.40;;;;;;4951896;29;20070;-77
2021/05/26 09:49:05;;;;;;;19.65;13.15;;;25.00;91.00;;;;;;4954107;29;20059;-75
2021/05/26 09:51:36;;;;;;;34.70;27.70;;;25.30;90.50;;;;;;4941423;28;20035;-75
2021/05/26 09:54:15;;;;;;;27.88;19.92;;;25.70;88.60;;;;;;4953453;28;20090;-78
2021/05/26 09:56:43;;;;;;;16.95;10.13;;;25.70;88.10;;;;;;4960852;28;20113;-76
2021/05/26 09:59:08;;;;;;;10.55;6.45;;;25.90;86.50;;;;;;4952818;28;20031;-76
2021/05/26 10:01:35;;;;;;;14.90;6.57;;;25.80;86.50;;;;;;4965325;28;20038;-77
2021/05/26 10:04:02;;;;;;;10.85;6.00;;;26.00;86.70;;;;;;4954859;29;20023;-77
2021/05/26 10:06:29;;;;;;;11.45;5.90;;;26.00;85.50;;;;;;4939438;29;20424;-77
2021/05/26 10:09:03;;;;;;;11.30;5.60;;;26.30;85.90;;;;;;4935154;29;20035;-77
2021/05/26 10:11:34;;;;;;;11.43;5.50;;;26.50;84.90;;;;;;4919067;29;20806;-77
2021/05/26 10:14:15;;;;;;;9.98;6.20;;;26.60;83.40;;;;;;4932748;29;20032;-76
2021/05/26 10:16:42;;;;;;;9.20;4.85;;;26.70;82.50;;;;;;4934891;29;20016;-79
2021/05/26 10:19:10;;;;;;;12.05;6.38;;;26.40;82.10;;;;;;4935343;29;20031;-78
2021/05/26 10:21:37;;;;;;;9.45;5.30;;;26.60;81.30;;;;;;4933918;29;20450;-77
2021/05/26 10:24:06;;;;;;;8.98;4.80;;;26.40;81.90;;;;;;4954925;29;20052;-78
2021/05/26 10:26:46;;;;;;;9.85;5.38;;;26.50;81.40;;;;;;4937313;29;20035;-78
2021/05/26 10:29:27;;;;;;;8.85;4.75;;;26.80;80.60;;;;;;4940951;28;20109;-78
2021/05/26 10:31:57;;;;;;;10.88;4.70;;;26.30;78.50;;;;;;4959168;28;20027;-77
2021/05/26 10:34:42;;;;;;;10.00;5.32;;;26.50;80.50;;;;;;4944050;29;20391;-77
2021/05/26 10:37:08;;;;;;;8.73;5.20;;;26.90;80.40;;;;;;4957426;28;22099;-77
2021/05/26 10:39:34;;;;;;;9.85;5.07;;;27.30;79.10;;;;;;4959999;28;20457;-77
2021/05/26 10:42:01;;;;;;;11.85;5.38;;;27.10;78.20;;;;;;4963404;28;20630;-79
2021/05/26 10:44:59;;;;;;;12.98;5.95;;;26.30;78.40;;;;;;4963255;28;20031;-79
2021/05/26 10:47:39;;;;;;;10.65;4.85;;;26.70;79.30;;;;;;4959237;28;20396;-79
2021/05/26 10:50:17;;;;;;;8.68;4.82;;;26.40;76.60;;;;;;4953516;29;20019;-80
2021/05/26 10:52:55;;;;;;;9.88;4.85;;;26.40;79.10;;;;;;4963946;28;20031;-77
2021/05/26 10:55:39;;;;;;;10.48;5.35;;;26.80;78.30;;;;;;4949799;29;20134;-77
2021/05/26 10:58:20;;;;;;;10.18;4.78;;;26.80;76.70;;;;;;4951280;29;20047;-78
2021/05/26 11:01:08;;;;;;;13.10;4.78;;;26.90;80.60;;;;;;4950681;29;20023;-78
2021/05/26 11:03:40;;;;;;;8.77;5.22;;;26.90;78.00;;;;;;4937805;29;20046;-75
2021/05/26 11:06:19;;;;;;;13.88;5.50;;;26.80;78.60;;;;;;4952809;28;20062;-77
2021/05/26 11:08:51;;;;;;;12.40;5.95;;;27.40;76.70;;;;;;4949456;29;20016;-79
2021/05/26 11:11:38;;;;;;;9.98;5.32;;;27.30;76.20;;;;;;4949767;29;20027;-80
2021/05/26 11:14:04;;;;;;;10.68;5.57;;;27.40;74.80;;;;;;4949305;29;20019;-77
2021/05/26 11:17:02;;;;;;;13.23;5.85;;;27.60;75.30;;;;;;4952678;28;20027;-78
2021/05/26 11:19:30;;;;;;;12.80;5.53;;;27.80;73.80;;;;;;4924609;29;20391;-78
2021/05/26 11:22:00;;;;;;;9.43;5.45;;;27.40;74.30;;;;;;4951025;29;20377;-77
2021/05/26 11:24:32;;;;;;;10.18;4.82;;;27.30;74.00;;;;;;4947926;29;20109;-79
2021/05/26 11:26:59;;;;;;;9.20;4.47;;;26.90;73.70;;;;;;4951797;28;20063;-78
2021/05/26 11:29:35;;;;;;;8.98;4.78;;;27.30;74.00;;;;;;4951608;28;20019;-78
2021/05/26 11:32:11;;;;;;;9.75;4.78;;;27.60;73.30;;;;;;4952259;28;20027;-76
2021/05/26 11:34:39;;;;;;;7.45;4.43;;;28.00;72.70;;;;;;4948913;29;20383;-76
2021/05/26 11:37:06;;;;;;;14.00;5.30;;;27.60;73.70;;;;;;4950558;29;20034;-79
2021/05/26 11:39:33;;;;;;;9.13;4.50;;;27.70;74.30;;;;;;4951374;28;20031;-78
2021/05/26 11:42:11;;;;;;;9.52;6.00;;;28.10;72.70;;;;;;4952481;28;20015;-77
2021/05/26 11:44:39;;;;;;;9.18;5.05;;;28.20;70.90;;;;;;4948529;29;20480;-79
2021/05/26 11:47:05;;;;;;;8.25;4.85;;;28.60;71.40;;;;;;4952635;28;20089;-79
2021/05/26 11:49:32;;;;;;;16.02;5.38;;;28.60;70.10;;;;;;4953212;28;20060;-78
2021/05/26 11:52:10;;;;;;;10.30;5.53;;;28.40;71.10;;;;;;4950696;29;20503;-78
2021/05/26 11:54:58;;;;;;;9.65;5.18;;;28.60;71.90;;;;;;4949943;29;20126;-78
2021/05/26 11:57:41;;;;;;;12.20;6.07;;;28.40;71.20;;;;;;4950193;29;20031;-78
2021/05/26 12:00:11;;;;;;;15.55;6.00;;;28.40;72.00;;;;;;4950560;29;20114;-77
2021/05/26 12:02:56;;;;;;;9.48;5.57;;;28.30;71.20;;;;;;4952038;28;20167;-78
2021/05/26 12:05:42;;;;;;;8.27;5.38;;;27.80;70.90;;;;;;4949844;29;20035;-76
2021/05/26 12:08:20;;;;;;;9.65;5.32;;;27.20;72.10;;;;;;4949259;29;20031;-77
2021/05/26 12:11:01;;;;;;;8.05;4.82;;;27.90;71.70;;;;;;4951818;28;20034;-78
2021/05/26 12:13:35;;;;;;;9.98;5.28;;;27.60;70.00;;;;;;4949097;29;20020;-77
2021/05/26 12:16:09;;;;;;;11.10;5.97;;;27.90;71.40;;;;;;4951351;28;20038;-77
2021/05/26 12:18:37;;;;;;;9.05;4.50;;;28.30;70.20;;;;;;4950079;29;20463;-77
2021/05/26 12:21:05;;;;;;;12.25;5.80;;;28.50;68.70;;;;;;4951511;28;20027;-77
2021/05/26 12:23:32;;;;;;;10.18;5.18;;;29.10;68.80;;;;;;4951717;28;20035;-78
2021/05/26 12:25:59;;;;;;;13.43;5.38;;;29.10;67.30;;;;;;4950098;29;20054;-76
2021/05/26 12:28:29;;;;;;;8.38;4.95;;;28.90;67.60;;;;;;4951179;28;20023;-76
2021/05/26 12:30:55;;;;;;;12.00;7.18;;;29.20;68.10;;;;;;4950263;28;20024;-77
2021/05/26 12:33:25;;;;;;;12.30;6.35;;;28.50;68.60;;;;;;4951335;28;20035;-76
2021/05/26 12:36:06;;;;;;;15.60;8.02;;;28.40;68.00;;;;;;4949349;29;20023;-75
2021/05/26 12:38:42;;;;;;;10.70;5.55;;;28.80;69.20;;;;;;4951058;28;20023;-75
2021/05/26 12:41:30;;;;;;;11.63;6.60;;;28.90;68.20;;;;;;4952102;29;20050;-76
2021/05/26 12:43:57;;;;;;;15.65;6.75;;;29.70;67.10;;;;;;4956245;28;20122;-76
2021/05/26 12:46:54;;;;;;;13.18;6.05;;;30.10;66.30;;;;;;4955226;29;20513;-78
2021/05/26 12:49:29;;;;;;;14.00;5.75;;;30.10;65.70;;;;;;4947514;28;20046;-76